Wiesbaden, Wiesbaden Army Airfield (ETOU)

NameWiesbaden Army Airfield
CityWiesbaden
CountryGermany
ICAOETOU
IATAWIE
Altitude141 m
CoordinatesGoogle Map
Live Air TrafficLiveATC.net
METARETOU 180056Z AUTO 30005KT 9999 CLR 02/M04 A2992 RMK AO2 SLP139 T00161041 $
2019-01-18 00:56:00 Wind: West-Northwest (300°) 2.57 m/s - Visibility: > 10000 m - Temperature: 2 °C - Dew point: -4 °C - Humidity: 64.8% - Pressure: 1013.21 hPa
Statistics

The table below shows the detailed information of all flights to/from Wiesbaden, Wiesbaden Army Airfield (ETOU).